Huvudsida
METAR-TAF:

METAR-TAF

Flygplatser :

Juhu Aerodrome

Bombay, Indien

latitud: 19-05-53N, longitud: 072-50-02E, höjd: 4 m

Aktuellt väderrapport

Denna rapport gjordes för 18 minuter sedan, klockan 10:00 UTC
Vind 9 kt från väst
Temperatur 32°C
Fuktighet 71%
Tryck 1002 hPa
Sikt: 5000 m
Få moln på en höjd av 2000 ft
torrdis,

METAR: VAJJ 201000Z 27009KT 5000 HZ FEW020 32/26 Q1002 NOSIG

Tid: 15:48 (10:18 UTC)


TAF: saknas

Aktuella väderrapporter och prognoser från 4000 flygplatser (METAR- och TAF-rapporter).

De tillgängliga stationerna syns som gula och röda prickar på kartan.

För musen över prickarna för att se namnen på stationerna.

Klicka sedan för att få väderrapporter och prognoser.

För att ändra kartan: Klicka på de gröna knapparna med ett svart kors på för att zooma in; den gröna knappen med ett streck på för att zooma ut; eller på de gröna pilarna för angränsande kartor.


METAR-TAF: